Time;durP1;ratioP1;P1;durP2;ratioP2;P2;SDS_P1;SDS_P2;PMS_P1;PMS_P2;Temp;Humidity;BMP_temperature;BMP_pressure;BME280_temperature;BME280_humidity;BME280_pressure;Samples;Min_cycle;Max_cycle;Signal;HPM_P1;HPM_P2
2021/11/15 00:02:07;;;;;;;71.07;43.67;;;6.50;99.90;;;6.47;69.39;102472.09;4936819;29;20223;-75
2021/11/15 00:04:37;;;;;;;77.97;45.10;;;6.50;99.90;;;6.50;69.71;102472.66;4936980;29;20196;-75
2021/11/15 00:07:06;;;;;;;71.95;41.70;;;6.50;99.90;;;6.44;69.93;102477.72;4936685;29;20212;-74
2021/11/15 00:09:35;;;;;;;67.68;42.35;;;6.50;99.90;;;6.46;69.91;102467.69;4936722;29;20578;-76
2021/11/15 00:12:05;;;;;;;88.30;47.20;;;6.50;99.90;;;6.50;69.34;102464.59;4936607;29;20271;-74
2021/11/15 00:14:34;;;;;;;75.07;43.25;;;6.50;99.90;;;6.43;69.67;102468.81;4950595;28;20193;-76
2021/11/15 00:17:06;;;;;;;76.13;44.60;;;6.50;99.90;;;6.44;69.64;102465.13;4935324;29;20244;-74
2021/11/15 00:19:35;;;;;;;72.68;43.90;;;6.50;99.90;;;6.47;69.94;102470.25;4936589;29;20788;-75
2021/11/15 00:22:04;;;;;;;74.10;44.15;;;6.50;99.90;;;6.43;69.69;102467.97;4936545;29;20718;-75
2021/11/15 00:24:32;;;;;;;66.80;40.85;;;6.50;99.90;;;6.36;69.51;102464.97;4951423;29;20203;-75
2021/11/15 00:27:01;;;;;;;71.38;42.35;;;6.50;99.90;;;6.44;69.67;102467.81;4936610;29;20181;-74
2021/11/15 00:29:29;;;;;;;69.72;40.83;;;6.50;99.90;;;6.37;69.99;102464.00;4936723;29;20185;-76
2021/11/15 00:31:58;;;;;;;62.95;38.67;;;6.50;99.90;;;6.28;70.06;102470.19;4937157;29;20212;-73
2021/11/15 00:34:27;;;;;;;69.47;41.85;;;6.40;99.90;;;6.38;69.71;102465.69;4936769;29;20213;-74
2021/11/15 00:36:56;;;;;;;71.72;39.72;;;6.40;99.90;;;6.37;70.22;102468.50;4935873;29;20607;-74
2021/11/15 00:39:24;;;;;;;66.88;42.22;;;6.40;99.90;;;6.37;70.08;102474.75;4935691;29;20193;-75
2021/11/15 00:41:53;;;;;;;76.82;40.80;;;6.40;99.90;;;6.32;70.21;102482.38;4937175;29;20558;-75
2021/11/15 00:44:22;;;;;;;64.47;40.97;;;6.40;99.90;;;6.34;70.31;102477.69;4939945;29;20236;-74
2021/11/15 00:46:51;;;;;;;71.68;39.88;;;6.40;99.90;;;6.35;69.99;102475.84;4940577;29;20181;-75
2021/11/15 00:49:19;;;;;;;66.28;39.65;;;6.40;99.90;;;6.32;70.07;102474.31;4940534;29;20185;-75
2021/11/15 00:51:49;;;;;;;67.43;39.17;;;6.40;99.90;;;6.24;70.83;102475.97;4939775;29;20205;-74
2021/11/15 00:54:17;;;;;;;68.30;42.70;;;6.40;99.90;;;6.26;70.69;102476.66;4937329;29;20582;-74
2021/11/15 00:56:46;;;;;;;62.08;40.53;;;6.40;99.90;;;6.34;70.38;102472.31;4937218;29;20205;-76
2021/11/15 00:59:14;;;;;;;62.83;39.13;;;6.30;99.90;;;6.26;70.41;102472.16;4938491;29;20183;-74
2021/11/15 01:01:43;;;;;;;73.88;42.97;;;6.40;99.90;;;6.30;70.40;102462.81;4940921;29;20180;-74
2021/11/15 01:04:12;;;;;;;63.60;40.05;;;6.40;99.90;;;6.32;70.31;102466.22;4939557;29;20304;-75
2021/11/15 01:06:40;;;;;;;64.05;39.00;;;6.40;99.90;;;6.29;70.57;102471.91;4939331;29;20192;-74
2021/11/15 01:09:10;;;;;;;63.70;40.55;;;6.40;99.90;;;6.34;70.56;102463.41;4936201;29;20174;-75
2021/11/15 01:11:40;;;;;;;64.30;40.40;;;6.40;99.90;;;6.27;70.79;102463.09;4935626;29;20300;-75
2021/11/15 01:14:09;;;;;;;67.50;39.97;;;6.40;99.90;;;6.32;70.47;102460.84;4934395;29;20220;-76
2021/11/15 01:16:37;;;;;;;65.82;41.38;;;6.40;99.90;;;6.25;70.86;102464.22;4935637;29;20611;-75
2021/11/15 01:19:06;;;;;;;59.65;37.97;;;6.30;99.90;;;6.30;70.79;102462.81;4934832;29;20192;-74
2021/11/15 01:21:35;;;;;;;63.75;38.85;;;6.40;99.90;;;6.30;71.17;102457.44;4935670;29;20184;-75
2021/11/15 01:24:04;;;;;;;63.13;38.67;;;6.30;99.90;;;6.25;71.37;102457.00;4934582;29;20216;-75
2021/11/15 01:26:34;;;;;;;62.55;39.42;;;6.30;99.90;;;6.19;71.56;102454.88;4949430;28;20288;-74
2021/11/15 01:29:03;;;;;;;73.15;41.40;;;6.30;99.90;;;6.27;71.61;102471.16;4937014;29;20220;-75
2021/11/15 01:31:34;;;;;;;65.30;41.15;;;6.30;99.90;;;6.36;70.90;102456.03;4937149;29;20287;-74
2021/11/15 01:34:02;;;;;;;65.57;42.33;;;6.40;99.90;;;6.29;71.30;102465.66;4939235;29;20255;-74
2021/11/15 01:36:31;;;;;;;69.32;42.30;;;6.30;99.90;;;6.24;71.75;102462.53;4941469;29;20188;-76
2021/11/15 01:38:59;;;;;;;67.75;42.55;;;6.30;99.90;;;6.29;71.52;102461.16;4940316;29;20180;-74
2021/11/15 01:41:28;;;;;;;66.93;43.00;;;6.30;99.90;;;6.34;71.22;102466.94;4937653;29;20220;-74
2021/11/15 01:43:58;;;;;;;64.95;42.42;;;6.40;99.90;;;6.20;71.81;102469.13;4936362;29;20321;-74
2021/11/15 01:46:27;;;;;;;66.43;42.53;;;6.30;99.90;;;6.27;71.80;102463.09;4936354;29;20204;-76
2021/11/15 01:48:56;;;;;;;68.72;40.90;;;6.30;99.90;;;6.25;71.60;102465.06;4935323;29;20177;-75
2021/11/15 01:51:24;;;;;;;65.07;41.15;;;6.30;99.90;;;6.22;71.86;102459.97;4935217;29;20230;-75
2021/11/15 01:53:53;;;;;;;69.55;40.15;;;6.30;99.90;;;6.19;72.19;102460.25;4937593;29;20211;-75
2021/11/15 01:56:21;;;;;;;70.78;41.45;;;6.30;99.90;;;6.25;71.93;102459.69;4938859;29;20185;-75
2021/11/15 01:58:50;;;;;;;68.38;40.15;;;6.30;99.90;;;6.30;71.68;102456.59;4938400;29;20185;-77
2021/11/15 02:01:20;;;;;;;70.82;45.13;;;6.30;99.90;;;6.11;72.26;102452.00;4952727;29;20197;-75
2021/11/15 02:03:48;;;;;;;65.47;41.67;;;6.20;99.90;;;6.19;72.24;102457.56;4935251;29;20228;-74
2021/11/15 02:06:17;;;;;;;74.93;42.30;;;6.30;99.90;;;6.24;72.20;102451.78;4934745;29;20188;-74
2021/11/15 02:08:45;;;;;;;76.40;44.35;;;6.30;99.90;;;6.29;71.93;102454.91;4934528;29;20181;-74
2021/11/15 02:11:14;;;;;;;75.95;43.58;;;6.30;99.90;;;6.22;71.90;102454.59;4934422;29;20200;-75
2021/11/15 02:13:44;;;;;;;74.53;43.38;;;6.30;99.90;;;6.34;71.98;102458.03;4934425;29;20287;-73
2021/11/15 02:16:14;;;;;;;61.03;37.08;;;6.30;99.90;;;6.33;71.55;102457.19;4934278;29;20638;-74
2021/11/15 02:18:44;;;;;;;66.40;41.22;;;6.30;99.90;;;6.31;71.79;102453.78;4933259;29;20614;-74
2021/11/15 02:21:14;;;;;;;63.63;40.88;;;6.40;99.90;;;6.33;71.90;102446.44;4934736;29;20184;-74
2021/11/15 02:23:46;;;;;;;68.32;40.47;;;6.40;99.90;;;6.40;71.27;102439.50;4934438;29;20208;-74
2021/11/15 02:26:18;;;;;;;68.80;43.65;;;6.40;99.90;;;6.38;71.41;102451.41;4932993;29;20752;-75
2021/11/15 02:28:50;;;;;;;68.88;42.33;;;6.50;99.90;;;6.38;71.26;102438.81;4934513;29;20173;-75
2021/11/15 02:31:23;;;;;;;75.32;42.33;;;6.40;99.90;;;6.33;71.41;102441.06;4934453;29;20204;-75
2021/11/15 02:33:53;;;;;;;64.80;41.88;;;6.40;99.90;;;6.36;71.64;102435.38;4934039;29;20232;-75
2021/11/15 02:36:27;;;;;;;73.05;43.10;;;6.40;99.90;;;6.41;71.45;102441.22;4934210;29;20191;-75
2021/11/15 02:38:57;;;;;;;69.70;42.40;;;6.40;99.90;;;6.37;71.53;102436.25;4936945;29;20187;-75
2021/11/15 02:41:26;;;;;;;70.00;45.75;;;6.40;99.90;;;6.40;71.44;102441.34;4936826;29;20204;-76
2021/11/15 02:43:55;;;;;;;69.95;44.42;;;6.50;99.90;;;6.29;71.48;102434.25;4937791;29;20204;-76
2021/11/15 02:46:24;;;;;;;89.88;57.42;;;6.40;99.90;;;6.27;71.90;102433.53;4937986;29;20192;-74
2021/11/15 02:48:53;;;;;;;83.95;47.42;;;6.40;99.90;;;6.26;72.01;102434.50;4937965;29;20225;-75
2021/11/15 02:51:24;;;;;;;63.55;45.08;;;6.30;99.90;;;6.30;71.71;102438.63;4938115;29;20598;-76
2021/11/15 02:53:53;;;;;;;78.57;46.75;;;6.40;99.90;;;6.17;72.07;102439.84;4938432;29;20241;-74
2021/11/15 02:56:21;;;;;;;79.75;46.53;;;6.30;99.90;;;6.31;71.85;102432.25;4938842;29;20189;-75
2021/11/15 02:58:50;;;;;;;88.75;57.63;;;6.30;99.90;;;6.41;71.30;102438.53;4939283;29;20181;-74
2021/11/15 03:01:21;;;;;;;68.45;43.97;;;6.40;99.90;;;6.37;71.93;102441.63;4938956;29;20674;-75
2021/11/15 03:03:50;;;;;;;76.35;49.45;;;6.40;99.90;;;6.42;71.33;102445.59;4939145;29;20216;-74
2021/11/15 03:06:18;;;;;;;62.35;40.55;;;6.40;99.90;;;6.33;71.71;102438.38;4938801;29;20204;-74
2021/11/15 03:08:48;;;;;;;62.88;41.53;;;6.40;99.90;;;6.28;72.01;102451.38;4937832;29;20185;-75
2021/11/15 03:11:17;;;;;;;72.82;44.40;;;6.40;99.90;;;6.36;72.10;102446.16;4938034;29;20437;-74
2021/11/15 03:13:48;;;;;;;63.78;41.40;;;6.40;99.90;;;6.34;71.87;102447.28;4937690;29;20205;-75
2021/11/15 03:16:17;;;;;;;76.38;46.58;;;6.30;99.90;;;6.34;72.11;102442.72;4952515;29;20284;-74
2021/11/15 03:18:46;;;;;;;68.85;43.67;;;6.40;99.90;;;6.37;72.04;102444.31;4938291;29;20161;-74
2021/11/15 03:21:19;;;;;;;63.55;40.42;;;6.40;99.90;;;6.35;71.74;102447.13;4938756;29;20216;-74
2021/11/15 03:23:52;;;;;;;66.07;41.60;;;6.40;99.90;;;6.32;71.98;102455.47;4937815;29;20634;-75
2021/11/15 03:26:22;;;;;;;69.43;40.13;;;6.40;99.90;;;6.36;72.08;102448.84;4937783;29;20228;-74
2021/11/15 03:28:54;;;;;;;63.38;39.25;;;6.40;99.90;;;6.35;72.24;102444.44;4937734;29;20631;-73
2021/11/15 03:31:26;;;;;;;63.75;38.60;;;6.40;99.90;;;6.37;72.22;102442.47;4937132;29;20239;-74
2021/11/15 03:33:59;;;;;;;67.35;40.38;;;6.40;99.90;;;6.38;71.82;102449.56;4969379;23;20289;-77
2021/11/15 03:36:28;;;;;;;68.18;40.22;;;6.40;99.90;;;6.28;72.43;102446.00;4909567;29;20697;-76
2021/11/15 03:39:00;;;;;;;59.88;40.55;;;6.30;99.90;;;6.41;72.18;102443.91;4921055;29;20178;-77
2021/11/15 03:41:34;;;;;;;78.22;43.28;;;6.40;99.90;;;6.40;72.29;102442.19;4918357;29;20190;-77
2021/11/15 03:44:05;;;;;;;69.78;41.80;;;6.40;99.90;;;6.34;72.47;102450.78;4934873;29;20208;-77
2021/11/15 03:46:34;;;;;;;64.40;40.58;;;6.40;99.90;;;6.40;72.07;102441.34;4938398;29;20177;-76
2021/11/15 03:49:03;;;;;;;72.63;42.13;;;6.40;99.90;;;6.38;72.07;102443.31;4939046;29;20204;-76
2021/11/15 03:51:34;;;;;;;67.25;40.63;;;6.40;99.90;;;6.35;72.55;102451.66;4937811;29;20205;-76
2021/11/15 03:54:05;;;;;;;69.07;39.33;;;6.40;99.90;;;6.34;72.47;102448.09;4938801;29;20208;-77
2021/11/15 03:56:34;;;;;;;72.43;41.63;;;6.40;99.90;;;6.33;72.83;102451.81;4937432;29;20561;-77
2021/11/15 03:59:09;;;;;;;66.72;39.92;;;6.40;99.90;;;6.28;72.83;102454.06;4938876;29;20268;-75
2021/11/15 04:01:39;;;;;;;75.30;43.50;;;6.40;99.90;;;6.37;72.38;102447.00;4939052;29;20196;-76
2021/11/15 04:04:14;;;;;;;64.43;42.53;;;6.40;99.90;;;6.45;72.33;102442.63;4939097;29;20791;-77
2021/11/15 04:06:49;;;;;;;73.70;41.80;;;6.40;99.90;;;6.33;72.78;102449.13;4938814;29;20184;-76
2021/11/15 04:09:20;;;;;;;71.90;42.08;;;6.40;99.90;;;6.36;72.66;102456.91;4938765;29;20256;-76
2021/11/15 04:11:49;;;;;;;67.97;42.75;;;6.40;99.90;;;6.38;72.45;102444.19;4938901;29;20205;-77
2021/11/15 04:14:18;;;;;;;77.00;42.95;;;6.40;99.90;;;6.39;73.04;102445.03;4938786;29;20689;-76
2021/11/15 04:16:47;;;;;;;66.10;45.17;;;6.40;99.90;;;6.30;72.99;102451.22;4938826;29;20650;-75
2021/11/15 04:19:19;;;;;;;66.88;41.90;;;6.30;99.90;;;6.30;73.09;102452.06;4939344;29;20183;-77
2021/11/15 04:21:50;;;;;;;74.88;42.05;;;6.30;99.90;;;6.32;73.32;102439.34;4940421;29;20260;-77
2021/11/15 04:24:21;;;;;;;70.45;43.67;;;6.30;99.90;;;6.27;73.36;102446.13;4938681;29;20586;-77
2021/11/15 04:26:49;;;;;;;68.95;42.58;;;6.30;99.90;;;6.22;73.40;102445.66;4940544;29;20192;-76
2021/11/15 04:29:18;;;;;;;70.93;43.17;;;6.20;99.90;;;6.24;73.38;102441.03;4939423;29;20204;-76
2021/11/15 04:31:49;;;;;;;66.97;40.58;;;6.30;99.90;;;6.33;73.05;102438.38;4938074;29;20200;-76
2021/11/15 04:34:18;;;;;;;64.32;40.88;;;6.30;99.90;;;6.26;73.22;102445.25;4938670;29;20228;-76
2021/11/15 04:36:47;;;;;;;71.97;43.97;;;6.30;99.90;;;6.30;73.30;102438.63;4941118;29;20181;-78
2021/11/15 04:39:17;;;;;;;69.05;43.30;;;6.30;99.90;;;6.29;73.65;102442.31;4941040;29;20176;-77
2021/11/15 04:41:47;;;;;;;73.72;41.58;;;6.30;99.90;;;6.33;73.19;102441.06;4940928;29;20193;-75
2021/11/15 04:44:16;;;;;;;74.32;43.83;;;6.30;99.90;;;6.30;73.18;102437.75;4942227;29;20582;-77
2021/11/15 04:46:45;;;;;;;70.40;41.53;;;6.30;99.90;;;6.25;73.46;102443.56;4942406;29;20181;-77
2021/11/15 04:49:14;;;;;;;65.75;41.42;;;6.30;99.90;;;6.26;73.64;102442.56;4941306;29;20264;-77
2021/11/15 04:51:42;;;;;;;76.97;44.65;;;6.30;99.90;;;6.23;73.52;102440.16;4942778;29;20185;-77
2021/11/15 04:54:13;;;;;;;71.13;41.28;;;6.30;99.90;;;6.23;73.44;102440.16;4942371;29;20629;-77
2021/11/15 04:56:43;;;;;;;66.85;40.40;;;6.20;99.90;;;6.31;73.31;102439.47;4943449;29;20184;-77
2021/11/15 04:59:13;;;;;;;69.38;43.30;;;6.30;99.90;;;6.24;73.67;102441.88;4941407;29;20208;-77
2021/11/15 05:01:43;;;;;;;73.70;42.78;;;6.30;99.90;;;6.27;73.48;102425.47;4942454;29;20594;-76
2021/11/15 05:04:12;;;;;;;66.57;40.53;;;6.30;99.90;;;6.26;73.78;102425.59;4940790;29;20221;-75
2021/11/15 05:06:41;;;;;;;73.03;43.33;;;6.20;99.90;;;6.21;73.93;102431.38;4941224;29;20177;-77
2021/11/15 05:09:09;;;;;;;74.75;40.90;;;6.20;99.90;;;6.26;73.79;102431.81;4937393;29;20185;-76
2021/11/15 05:11:38;;;;;;;66.47;38.53;;;6.30;99.90;;;6.31;73.82;102429.56;4939368;29;20247;-75
2021/11/15 05:14:07;;;;;;;72.35;43.25;;;6.30;99.90;;;6.28;73.80;102429.84;4940832;29;20217;-76
2021/11/15 05:16:37;;;;;;;62.47;41.90;;;6.30;99.90;;;6.29;73.64;102428.88;4938542;29;20730;-76
2021/11/15 05:19:06;;;;;;;69.72;41.28;;;6.30;99.90;;;6.16;73.92;102433.63;4938574;29;20181;-76
2021/11/15 05:21:35;;;;;;;69.13;42.83;;;6.20;99.90;;;6.18;74.37;102436.19;4938013;29;20268;-76
2021/11/15 05:24:05;;;;;;;65.47;42.70;;;6.20;99.90;;;6.23;74.20;102440.16;4936204;29;20224;-77
2021/11/15 05:26:34;;;;;;;63.05;41.42;;;6.20;99.90;;;6.28;73.95;102434.38;4938029;29;20233;-77
2021/11/15 05:29:03;;;;;;;78.93;45.55;;;6.20;99.90;;;6.23;74.16;102440.16;4937624;29;20192;-77
2021/11/15 05:31:34;;;;;;;66.70;40.72;;;6.20;99.90;;;6.23;74.12;102444.69;4936652;29;20196;-77
2021/11/15 05:34:06;;;;;;;60.10;40.22;;;6.20;99.90;;;6.20;74.20;102437.72;4936157;29;20232;-77
2021/11/15 05:36:34;;;;;;;61.42;40.03;;;6.20;99.90;;;6.24;74.10;102436.50;4936012;29;20205;-75
2021/11/15 05:39:05;;;;;;;72.10;43.20;;;6.20;99.90;;;6.23;74.04;102442.00;4937186;29;20227;-75
2021/11/15 05:41:34;;;;;;;64.47;39.30;;;6.20;99.90;;;6.22;74.36;102443.84;4936113;29;20219;-77
2021/11/15 05:44:04;;;;;;;69.50;41.60;;;6.20;99.90;;;6.17;74.72;102448.78;4937289;29;20557;-76
2021/11/15 05:46:33;;;;;;;68.50;41.80;;;6.20;99.90;;;6.20;74.30;102445.81;4937060;29;20193;-75
2021/11/15 05:49:01;;;;;;;66.85;41.63;;;6.20;99.90;;;6.26;74.23;102442.56;4935925;29;20229;-79
2021/11/15 05:51:31;;;;;;;66.88;42.83;;;6.20;99.90;;;6.24;74.17;102447.25;4936365;29;20534;-77
2021/11/15 05:54:01;;;;;;;76.97;42.92;;;6.20;99.90;;;6.30;73.95;102444.00;4937223;29;20690;-77
2021/11/15 05:56:29;;;;;;;69.68;41.08;;;6.30;99.90;;;6.29;74.11;102450.38;4935871;29;20282;-77
2021/11/15 05:58:58;;;;;;;72.18;42.15;;;6.30;99.90;;;6.26;74.20;102453.31;4935772;29;20568;-77
2021/11/15 06:01:27;;;;;;;73.05;44.15;;;6.30;99.90;;;6.21;74.53;102447.50;4938513;29;20200;-77
2021/11/15 06:03:56;;;;;;;73.68;44.08;;;6.20;99.90;;;6.33;74.30;102440.19;4937106;29;20213;-77
2021/11/15 06:06:25;;;;;;;72.10;43.15;;;6.30;99.90;;;6.37;74.05;102447.00;4938124;29;20187;-76
2021/11/15 06:08:55;;;;;;;72.72;44.92;;;6.30;99.90;;;6.27;74.43;102451.50;4938379;29;20181;-78
2021/11/15 06:11:25;;;;;;;73.60;44.78;;;6.30;99.90;;;6.33;74.14;102453.66;4937681;29;20263;-77
2021/11/15 06:13:53;;;;;;;69.47;43.05;;;6.30;99.90;;;6.29;74.20;102458.44;4939873;29;20204;-77
2021/11/15 06:16:25;;;;;;;70.22;41.00;;;6.30;99.90;;;6.27;74.23;102462.25;4941194;29;20183;-77
2021/11/15 06:18:54;;;;;;;71.00;43.38;;;6.40;99.90;;;6.24;74.18;102458.00;4940327;29;20196;-77
2021/11/15 06:21:23;;;;;;;65.03;40.92;;;6.30;99.90;;;6.31;74.32;102466.34;4944473;29;20260;-77
2021/11/15 06:23:51;;;;;;;60.60;40.83;;;6.30;99.90;;;6.33;73.96;102462.56;4941455;29;20250;-75
2021/11/15 06:26:22;;;;;;;74.10;43.45;;;6.30;99.90;;;6.35;74.26;102460.56;4941460;29;20235;-77
2021/11/15 06:28:51;;;;;;;61.97;40.05;;;6.30;99.90;;;6.34;74.03;102466.94;4941698;29;20728;-75
2021/11/15 06:31:20;;;;;;;73.82;44.33;;;6.40;99.90;;;6.23;74.58;102469.75;4940335;29;20201;-76
2021/11/15 06:33:50;;;;;;;72.95;41.80;;;6.30;99.90;;;6.32;74.41;102476.13;4939641;29;20228;-77
2021/11/15 06:36:22;;;;;;;76.18;42.40;;;6.30;99.90;;;6.35;74.18;102474.00;4939177;29;20228;-77
2021/11/15 06:38:53;;;;;;;67.43;40.85;;;6.30;99.90;;;6.37;74.23;102473.88;4939258;29;20244;-77
2021/11/15 06:41:24;;;;;;;62.63;40.20;;;6.30;99.90;;;6.40;74.03;102479.84;4940424;29;20635;-75
2021/11/15 06:43:53;;;;;;;70.45;40.13;;;6.40;99.90;;;6.42;74.27;102480.56;4940410;29;20219;-76
2021/11/15 06:46:28;;;;;;;72.80;40.85;;;6.40;99.90;;;6.35;73.94;102475.84;4940676;29;20180;-77
2021/11/15 06:48:57;;;;;;;65.95;39.75;;;6.40;99.90;;;6.34;74.19;102468.78;4941341;29;20173;-76
2021/11/15 06:51:42;;;;;;;73.75;39.88;;;6.40;99.90;;;6.34;74.30;102475.00;4941122;29;20223;-77
2021/11/15 06:54:16;;;;;;;65.07;40.38;;;6.40;99.90;;;6.39;73.97;102480.81;4940537;29;20299;-76
2021/11/15 06:56:46;;;;;;;72.65;39.08;;;6.40;99.90;;;6.32;74.05;102477.00;4940348;29;20287;-75
2021/11/15 06:59:15;;;;;;;65.05;41.42;;;6.40;99.90;;;6.29;74.32;102468.34;4942992;29;20200;-77
2021/11/15 07:01:44;;;;;;;58.47;37.35;;;6.30;99.90;;;6.28;74.42;102470.19;4941012;29;20622;-76
2021/11/15 07:04:13;;;;;;;70.07;39.83;;;6.30;99.90;;;6.32;74.09;102470.75;4942322;29;20212;-76
2021/11/15 07:06:44;;;;;;;72.07;40.30;;;6.30;99.90;;;6.33;74.19;102467.94;4940508;29;20177;-76
2021/11/15 07:09:13;;;;;;;66.30;39.35;;;6.30;99.90;;;6.28;74.35;102475.56;4940309;29;20192;-76
2021/11/15 07:11:42;;;;;;;62.97;37.55;;;6.30;99.90;;;6.41;74.16;102476.16;4939693;29;20197;-76
2021/11/15 07:14:13;;;;;;;68.97;37.72;;;6.40;99.90;;;6.47;73.76;102481.00;4942929;29;20208;-77
2021/11/15 07:16:41;;;;;;;62.33;38.42;;;6.40;99.90;;;6.34;73.97;102475.00;4944978;29;20181;-76
2021/11/15 07:19:11;;;;;;;64.35;38.10;;;6.40;99.90;;;6.37;73.97;102471.19;4944208;29;20685;-77
2021/11/15 07:21:39;;;;;;;66.07;41.72;;;6.40;99.90;;;6.36;73.94;102470.34;4945280;29;20591;-73
2021/11/15 07:24:08;;;;;;;66.07;37.25;;;6.40;99.90;;;6.40;73.87;102479.84;4947295;29;20212;-75
2021/11/15 07:26:37;;;;;;;60.92;37.33;;;6.40;99.90;;;6.46;73.36;102476.59;4947278;29;20178;-75
2021/11/15 07:29:07;;;;;;;68.45;38.28;;;6.40;99.90;;;6.46;73.52;102468.53;4944592;29;20188;-75
2021/11/15 07:31:39;;;;;;;65.10;40.03;;;6.40;99.90;;;6.50;73.22;102474.50;4941308;29;20231;-75
2021/11/15 07:34:08;;;;;;;60.00;33.88;;;6.50;99.90;;;6.43;73.36;102474.19;4938947;29;20342;-75
2021/11/15 07:36:38;;;;;;;69.07;39.10;;;6.40;99.90;;;6.42;73.44;102485.94;4939172;29;20185;-76
2021/11/15 07:39:08;;;;;;;57.28;36.60;;;6.50;99.90;;;6.37;73.49;102473.88;4938980;29;20252;-75
2021/11/15 07:41:37;;;;;;;61.40;37.58;;;6.40;99.90;;;6.38;73.46;102487.22;4938975;29;20216;-75
2021/11/15 07:44:07;;;;;;;72.32;38.15;;;6.40;99.90;;;6.45;73.35;102477.59;4937775;29;20248;-75
2021/11/15 07:46:37;;;;;;;54.65;34.33;;;6.40;99.90;;;6.53;73.17;102479.59;4938038;29;20243;-75
2021/11/15 07:49:05;;;;;;;70.65;39.33;;;6.50;99.90;;;6.58;72.77;102482.75;4939160;29;20205;-76
2021/11/15 07:51:35;;;;;;;60.90;39.80;;;6.50;99.90;;;6.52;72.90;102484.13;4938787;29;20204;-74
2021/11/15 07:54:04;;;;;;;53.88;36.38;;;6.50;99.90;;;6.42;73.32;102490.47;4939151;29;20220;-74
2021/11/15 07:56:33;;;;;;;50.08;32.08;;;6.50;99.90;;;6.51;72.97;102487.81;4939318;29;20674;-75
2021/11/15 07:59:02;;;;;;;63.70;38.58;;;6.50;99.90;;;6.49;73.31;102479.00;4940701;29;20207;-74
2021/11/15 08:01:31;;;;;;;62.83;36.08;;;6.50;99.90;;;6.41;72.99;102481.53;4941670;29;20240;-76
2021/11/15 08:04:02;;;;;;;59.25;36.65;;;6.50;99.90;;;6.53;72.70;102480.44;4938557;29;20212;-74
2021/11/15 08:06:31;;;;;;;52.20;32.65;;;6.50;99.90;;;6.45;72.80;102480.28;4938600;29;20207;-75
2021/11/15 08:09:00;;;;;;;56.50;32.40;;;6.50;99.90;;;6.51;72.60;102486.97;4938989;29;20221;-75
2021/11/15 08:11:32;;;;;;;57.05;33.35;;;6.50;99.90;;;6.49;73.11;102487.09;4938496;29;20200;-75
2021/11/15 08:14:00;;;;;;;61.70;33.63;;;6.50;99.90;;;6.51;72.98;102493.19;4941235;29;20221;-76
2021/11/15 08:16:30;;;;;;;53.15;34.28;;;6.50;99.90;;;6.57;72.55;102481.03;4943833;29;20173;-75
2021/11/15 08:18:59;;;;;;;56.00;34.72;;;6.50;99.90;;;6.57;72.18;102480.19;4941468;29;20201;-75
2021/11/15 08:21:29;;;;;;;52.15;33.22;;;6.60;99.90;;;6.57;72.39;102477.50;4940047;29;20189;-74
2021/11/15 08:24:46;;;;;;;50.42;33.03;;;6.60;99.90;;;6.50;72.69;102475.34;4937606;29;20208;-75
2021/11/15 08:27:14;;;;;;;57.80;34.50;;;6.50;99.90;;;6.64;72.17;102474.09;4937214;29;20188;-74
2021/11/15 08:29:43;;;;;;;51.97;33.35;;;6.50;99.90;;;6.62;72.70;102472.53;4937257;29;20608;-74
2021/11/15 08:32:15;;;;;;;53.60;30.95;;;6.60;99.90;;;6.60;72.16;102475.38;4937163;29;20213;-75
2021/11/15 08:34:44;;;;;;;46.70;30.23;;;6.60;99.90;;;6.68;72.10;102472.00;4937061;29;20268;-74
2021/11/15 08:37:14;;;;;;;58.50;33.25;;;6.60;99.90;;;6.62;72.27;102467.16;4936796;29;20189;-76
2021/11/15 08:39:43;;;;;;;50.55;30.98;;;6.60;99.90;;;6.65;71.70;102467.72;4937822;29;20539;-74
2021/11/15 08:42:13;;;;;;;49.35;30.55;;;6.60;99.90;;;6.64;71.71;102465.16;4937394;29;20546;-75
2021/11/15 08:44:44;;;;;;;47.63;30.38;;;6.60;99.90;;;6.63;71.73;102475.13;4937702;29;20180;-76
2021/11/15 08:47:13;;;;;;;41.80;30.40;;;6.60;99.90;;;6.62;71.81;102472.53;4937973;29;20669;-75
2021/11/15 08:49:41;;;;;;;49.33;29.75;;;6.60;99.90;;;6.62;72.03;102472.53;4936843;29;20208;-75
2021/11/15 08:52:10;;;;;;;48.35;29.30;;;6.60;99.90;;;6.62;72.03;102472.53;4936080;29;20547;-74
2021/11/15 08:54:41;;;;;;;42.65;29.63;;;6.60;99.90;;;6.67;71.56;102473.84;4937670;29;20248;-75
2021/11/15 08:57:09;;;;;;;46.05;30.83;;;6.60;99.90;;;6.63;71.19;102474.25;4935915;29;20196;-75
2021/11/15 08:59:41;;;;;;;47.58;30.48;;;6.70;99.90;;;6.60;71.55;102469.13;4936876;29;20181;-74
2021/11/15 09:02:10;;;;;;;49.35;28.20;;;6.60;99.90;;;6.55;71.47;102473.09;4935393;29;20294;-75
2021/11/15 09:04:39;;;;;;;46.33;27.98;;;6.60;99.90;;;6.59;71.48;102472.81;4936753;29;20217;-74
2021/11/15 09:07:09;;;;;;;41.75;28.88;;;6.60;99.90;;;6.55;71.54;102478.47;4936548;29;20209;-75
2021/11/15 09:09:40;;;;;;;42.95;26.98;;;6.50;99.90;;;6.60;70.96;102479.91;4937258;29;20203;-74
2021/11/15 09:12:10;;;;;;;47.88;28.75;;;6.60;99.90;;;6.57;71.01;102472.09;4936455;29;20665;-75
2021/11/15 09:14:39;;;;;;;53.70;31.70;;;6.60;99.90;;;6.59;70.84;102475.50;4936298;29;20216;-75
2021/11/15 09:17:08;;;;;;;54.78;29.98;;;6.60;99.90;;;6.55;70.69;102478.47;4937471;29;20173;-75
2021/11/15 09:19:38;;;;;;;46.65;28.52;;;6.60;99.90;;;6.57;70.57;102475.66;4936998;29;20388;-73
2021/11/15 09:22:07;;;;;;;47.22;28.45;;;6.60;99.90;;;6.59;70.64;102480.88;4936672;29;20191;-75
2021/11/15 09:24:36;;;;;;;48.50;28.85;;;6.60;99.90;;;6.51;70.74;102482.44;4935296;29;20279;-74
2021/11/15 09:27:12;;;;;;;36.10;26.25;;;6.60;99.90;;;6.47;70.41;102486.38;4935026;29;20203;-75
2021/11/15 09:29:41;;;;;;;45.13;29.20;;;6.50;99.90;;;6.54;70.73;102482.13;4935393;29;20192;-75
2021/11/15 09:32:10;;;;;;;39.83;27.63;;;6.50;99.90;;;6.57;70.48;102480.19;4938189;29;20317;-75
2021/11/15 09:34:40;;;;;;;38.25;26.10;;;6.60;99.90;;;6.60;70.50;102485.28;4987776;23;20229;-75
2021/11/15 09:37:10;;;;;;;40.08;26.30;;;6.60;99.90;;;6.59;70.49;102486.25;4979890;28;20198;-74
2021/11/15 09:39:41;;;;;;;50.60;29.73;;;6.60;99.90;;;6.72;70.02;102484.19;4980486;28;20238;-74
2021/11/15 09:42:13;;;;;;;44.45;26.50;;;6.70;99.90;;;6.67;70.54;102484.59;4978839;28;20566;-74
2021/11/15 09:44:43;;;;;;;41.63;27.35;;;6.60;99.90;;;6.78;69.71;102484.47;4980720;28;20235;-73
2021/11/15 09:47:13;;;;;;;43.45;28.27;;;6.70;99.90;;;6.65;69.96;102488.41;4978395;28;20254;-74
2021/11/15 09:49:42;;;;;;;46.28;27.25;;;6.70;99.90;;;6.61;70.22;102486.97;4979346;28;20559;-75
2021/11/15 09:52:13;;;;;;;51.40;30.48;;;6.60;99.90;;;6.64;69.99;102487.53;4975967;28;20215;-71
2021/11/15 09:54:41;;;;;;;48.80;29.65;;;6.70;99.90;;;6.65;70.19;102485.72;4977468;28;20195;-73
2021/11/15 09:57:31;;;;;;;47.55;28.17;;;6.60;99.90;;;6.76;69.59;102489.16;4992712;28;20183;-72
2021/11/15 10:00:03;;;;;;;42.72;26.02;;;6.80;99.90;;;6.74;69.76;102487.56;4994595;28;20195;-74
2021/11/15 10:02:41;;;;;;;49.97;29.90;;;6.70;99.90;;;6.87;69.47;102490.88;4978478;28;20242;-73
2021/11/15 10:05:10;;;;;;;45.35;29.55;;;6.80;99.90;;;6.87;69.38;102488.19;4976882;28;20203;-72
2021/11/15 10:07:43;;;;;;;46.88;30.40;;;6.90;99.90;;;6.81;69.21;102480.66;4974076;28;20201;-71
2021/11/15 10:10:41;;;;;;;49.22;29.33;;;6.80;99.90;;;6.81;69.21;102481.50;4966035;28;20193;-72
2021/11/15 10:13:20;;;;;;;42.25;26.80;;;6.80;99.90;;;6.75;69.29;102474.00;4937199;29;20221;-72
2021/11/15 10:16:15;;;;;;;45.72;28.88;;;6.80;99.90;;;6.77;69.32;102465.78;4954770;29;20217;-72
2021/11/15 10:18:53;;;;;;;44.67;28.08;;;6.80;99.90;;;6.72;70.00;102460.81;4927665;29;20229;-72
2021/11/15 10:21:28;;;;;;;38.75;26.20;;;6.70;99.90;;;6.82;69.59;102466.22;4955350;29;20184;-72
2021/11/15 10:24:01;;;;;;;46.15;30.15;;;6.80;99.90;;;6.93;69.09;102455.31;4939580;29;20634;-73
2021/11/15 10:26:37;;;;;;;45.65;30.58;;;6.80;99.90;;;6.82;69.27;102456.31;4940600;29;20181;-72